Time;durP1;ratioP1;P1;durP2;ratioP2;P2;SDS_P1;SDS_P2;PMS_P1;PMS_P2;Temp;Humidity;BMP_temperature;BMP_pressure;BME280_temperature;BME280_humidity;BME280_pressure;Samples;Min_cycle;Max_cycle;Signal;HPM_P1;HPM_P2
2020/12/14 00:01:34;;;;;;;92.18;26.63;;;6.20;99.90;;;;;;5007257;28;20092;-77
2020/12/14 00:04:00;;;;;;;87.60;25.98;;;6.20;99.90;;;;;;5005005;28;20584;-77
2020/12/14 00:06:25;;;;;;;92.72;25.25;;;6.20;99.90;;;;;;5008048;28;20032;-77
2020/12/14 00:08:51;;;;;;;89.03;26.23;;;6.20;99.90;;;;;;5005124;28;20092;-77
2020/12/14 00:11:16;;;;;;;79.75;24.60;;;6.20;99.90;;;;;;5006867;28;20033;-77
2020/12/14 00:13:42;;;;;;;83.22;25.92;;;6.20;99.90;;;;;;5007361;28;20037;-76
2020/12/14 00:16:08;;;;;;;90.55;26.65;;;6.20;99.90;;;;;;5004298;28;20500;-78
2020/12/14 00:18:34;;;;;;;94.38;27.73;;;6.10;99.90;;;;;;5007037;28;20041;-76
2020/12/14 00:20:59;;;;;;;79.28;24.75;;;6.20;99.90;;;;;;5007118;28;20025;-76
2020/12/14 00:23:25;;;;;;;92.75;26.65;;;6.20;99.90;;;;;;5007079;28;20022;-76
2020/12/14 00:25:50;;;;;;;86.90;26.27;;;6.20;99.90;;;;;;5007132;28;20053;-75
2020/12/14 00:28:16;;;;;;;99.43;25.63;;;6.20;99.90;;;;;;5007565;28;20045;-76
2020/12/14 00:30:41;;;;;;;89.22;27.30;;;6.20;99.90;;;;;;4997813;28;20789;-76
2020/12/14 00:33:06;;;;;;;99.47;27.13;;;6.20;99.90;;;;;;5005154;28;20114;-76
2020/12/14 00:35:32;;;;;;;99.55;27.30;;;6.20;99.90;;;;;;5008106;28;20295;-76
2020/12/14 00:37:57;;;;;;;89.05;26.67;;;6.20;99.90;;;;;;5003662;28;20045;-76
2020/12/14 00:40:23;;;;;;;93.95;26.98;;;6.30;99.90;;;;;;5007268;28;20038;-76
2020/12/14 00:42:48;;;;;;;101.00;27.10;;;6.30;99.90;;;;;;5001531;28;20093;-76
2020/12/14 00:45:14;;;;;;;87.88;26.10;;;6.30;99.90;;;;;;5007576;28;20088;-77
2020/12/14 00:47:39;;;;;;;82.43;26.70;;;6.30;99.90;;;;;;5007060;28;20026;-76
2020/12/14 00:50:05;;;;;;;89.18;26.77;;;6.20;99.90;;;;;;5006812;28;20065;-75
2020/12/14 00:52:33;;;;;;;98.38;28.17;;;6.20;99.90;;;;;;5008354;28;20030;-76
2020/12/14 00:54:58;;;;;;;84.45;25.50;;;6.30;99.90;;;;;;5010513;28;20064;-76
2020/12/14 00:57:24;;;;;;;92.88;27.48;;;6.20;99.90;;;;;;5005857;28;20054;-77
2020/12/14 00:59:49;;;;;;;97.78;26.80;;;6.30;99.90;;;;;;5010165;28;20022;-76
2020/12/14 01:02:15;;;;;;;95.60;26.25;;;6.30;99.90;;;;;;5010128;28;20026;-76
2020/12/14 01:04:40;;;;;;;99.05;26.25;;;6.30;99.90;;;;;;5009581;28;20053;-76
2020/12/14 01:07:06;;;;;;;101.53;28.08;;;6.30;99.90;;;;;;5010698;28;20033;-76
2020/12/14 01:09:31;;;;;;;98.15;27.17;;;6.30;99.90;;;;;;5011126;28;20022;-76
2020/12/14 01:12:00;;;;;;;93.32;28.25;;;6.40;99.90;;;;;;5010413;28;20113;-76
2020/12/14 01:14:26;;;;;;;105.70;28.27;;;6.40;99.90;;;;;;5010704;28;20029;-76
2020/12/14 01:16:51;;;;;;;96.75;28.67;;;6.40;99.90;;;;;;5010417;28;20061;-76
2020/12/14 01:19:17;;;;;;;101.80;28.52;;;6.40;99.90;;;;;;5010036;28;20121;-76
2020/12/14 01:21:42;;;;;;;98.15;27.13;;;6.40;99.90;;;;;;5007010;28;20025;-76
2020/12/14 01:24:07;;;;;;;105.97;28.17;;;6.30;99.90;;;;;;5009771;28;20026;-76
2020/12/14 01:26:33;;;;;;;96.43;27.05;;;6.30;99.90;;;;;;5009741;28;20025;-76
2020/12/14 01:28:58;;;;;;;107.10;28.60;;;6.30;99.90;;;;;;5006078;28;20026;-76
2020/12/14 01:31:24;;;;;;;102.65;27.23;;;6.40;99.90;;;;;;5009635;28;20038;-76
2020/12/14 01:33:49;;;;;;;93.57;28.10;;;6.40;99.90;;;;;;5009223;28;20433;-77
2020/12/14 01:36:15;;;;;;;107.82;28.45;;;6.50;99.90;;;;;;5010391;28;20041;-77
2020/12/14 01:38:40;;;;;;;92.93;27.10;;;6.50;99.90;;;;;;5010237;28;20128;-77
2020/12/14 01:41:06;;;;;;;92.85;27.17;;;6.50;99.90;;;;;;5008869;28;20060;-77
2020/12/14 01:43:31;;;;;;;90.60;26.88;;;6.50;99.90;;;;;;5010294;28;20050;-77
2020/12/14 01:45:57;;;;;;;112.50;27.83;;;6.40;99.90;;;;;;5009977;28;20101;-77
2020/12/14 01:48:24;;;;;;;99.18;26.55;;;6.40;99.90;;;;;;5009552;28;20041;-77
2020/12/14 01:50:51;;;;;;;98.10;29.10;;;6.50;99.90;;;;;;5018878;28;20029;-77
2020/12/14 01:53:18;;;;;;;96.85;28.45;;;6.50;99.90;;;;;;5006077;28;20041;-77
2020/12/14 01:55:44;;;;;;;110.78;29.10;;;6.50;99.90;;;;;;5010314;28;20392;-77
2020/12/14 01:58:10;;;;;;;95.75;28.42;;;6.50;99.90;;;;;;5009791;28;20036;-77
2020/12/14 02:00:36;;;;;;;101.03;26.83;;;6.50;99.90;;;;;;5008881;28;20120;-77
2020/12/14 02:03:02;;;;;;;97.68;27.30;;;6.50;99.90;;;;;;5006803;28;20030;-77
2020/12/14 02:05:28;;;;;;;103.15;27.95;;;6.50;99.90;;;;;;5008159;28;20496;-77
2020/12/14 02:07:53;;;;;;;92.07;26.83;;;6.50;99.90;;;;;;5009422;28;20032;-77
2020/12/14 02:10:19;;;;;;;83.68;26.17;;;6.50;99.90;;;;;;5011969;28;20400;-77
2020/12/14 02:12:45;;;;;;;88.00;26.73;;;6.40;99.90;;;;;;5011976;28;20119;-77
2020/12/14 02:15:11;;;;;;;74.13;25.15;;;6.50;99.90;;;;;;5007776;28;20046;-77
2020/12/14 02:17:36;;;;;;;69.30;24.73;;;6.40;99.90;;;;;;5009098;28;20076;-77
2020/12/14 02:20:03;;;;;;;74.63;23.45;;;6.40;99.90;;;;;;5009143;28;20112;-77
2020/12/14 02:22:28;;;;;;;80.65;23.20;;;6.40;99.90;;;;;;5008402;28;20040;-77
2020/12/14 02:25:00;;;;;;;67.03;23.75;;;6.40;99.90;;;;;;5000323;28;20172;-77
2020/12/14 02:27:27;;;;;;;69.72;23.65;;;6.50;99.90;;;;;;5009103;28;20076;-77
2020/12/14 02:29:53;;;;;;;67.65;23.08;;;6.40;99.90;;;;;;5008046;28;20488;-78
2020/12/14 02:32:19;;;;;;;69.30;22.65;;;6.30;99.90;;;;;;5008468;28;20041;-77
2020/12/14 02:34:45;;;;;;;75.53;21.95;;;6.30;99.90;;;;;;5007630;28;20022;-77
2020/12/14 02:37:17;;;;;;;65.40;22.33;;;6.30;99.90;;;;;;5008268;28;20109;-77
2020/12/14 02:39:42;;;;;;;;;;;6.40;99.90;;;;;;5009652;28;20113;-77
2020/12/14 02:42:13;;;;;;;65.50;22.42;;;6.40;99.90;;;;;;5008114;28;19997;-77
2020/12/14 02:44:39;;;;;;;61.60;20.93;;;6.40;99.90;;;;;;5008443;28;20022;-77
2020/12/14 02:47:05;;;;;;;61.33;19.73;;;6.40;99.90;;;;;;5007569;28;20022;-77
2020/12/14 02:49:31;;;;;;;56.30;19.88;;;6.50;99.90;;;;;;5009315;28;20033;-77
2020/12/14 02:51:56;;;;;;;65.15;19.83;;;6.50;99.90;;;;;;5008650;28;20096;-77
2020/12/14 02:54:22;;;;;;;54.60;18.48;;;6.40;99.90;;;;;;5008499;28;20503;-77
2020/12/14 02:56:48;;;;;;;51.05;18.83;;;6.40;99.90;;;;;;5006615;28;20188;-77
2020/12/14 02:59:14;;;;;;;48.95;18.30;;;6.50;99.90;;;;;;5007598;28;20030;-77
2020/12/14 03:01:41;;;;;;;47.72;18.73;;;6.40;99.90;;;;;;5007172;28;20109;-77
2020/12/14 03:04:06;;;;;;;51.25;18.20;;;6.40;99.90;;;;;;5007462;28;20501;-77
2020/12/14 03:06:32;;;;;;;44.38;17.33;;;6.40;99.90;;;;;;5008851;28;20049;-77
2020/12/14 03:08:58;;;;;;;45.30;18.23;;;6.40;99.90;;;;;;5007225;28;20026;-77
2020/12/14 03:11:23;;;;;;;51.33;17.80;;;6.40;99.90;;;;;;5006007;28;20101;-77
2020/12/14 03:13:49;;;;;;;43.38;17.45;;;6.40;99.90;;;;;;5008333;28;20028;-77
2020/12/14 03:16:15;;;;;;;39.97;16.85;;;6.50;99.90;;;;;;5007936;28;20032;-77
2020/12/14 03:18:40;;;;;;;49.00;15.95;;;6.50;99.90;;;;;;5008293;28;20065;-77
2020/12/14 03:21:06;;;;;;;48.35;16.65;;;6.50;99.90;;;;;;5007282;28;20464;-77
2020/12/14 03:23:33;;;;;;;48.05;17.00;;;6.50;99.90;;;;;;5008513;28;20066;-77
2020/12/14 03:25:58;;;;;;;49.00;16.27;;;6.50;99.90;;;;;;5007330;28;20136;-77
2020/12/14 03:28:24;;;;;;;44.28;16.92;;;6.50;99.90;;;;;;5008762;28;20664;-77
2020/12/14 03:30:49;;;;;;;53.85;16.60;;;6.60;99.90;;;;;;5007460;28;20113;-77
2020/12/14 03:33:15;;;;;;;47.60;16.67;;;6.50;99.90;;;;;;5007822;28;20038;-77
2020/12/14 03:35:40;;;;;;;56.97;16.33;;;6.60;99.90;;;;;;5007899;28;20100;-77
2020/12/14 03:38:06;;;;;;;48.42;16.98;;;6.60;99.90;;;;;;5007529;28;20106;-77
2020/12/14 03:40:31;;;;;;;47.53;16.60;;;6.60;99.90;;;;;;5007709;28;21676;-77
2020/12/14 03:42:57;;;;;;;50.10;17.33;;;6.60;99.90;;;;;;5008357;28;20080;-77
2020/12/14 03:45:22;;;;;;;45.22;17.33;;;6.60;99.90;;;;;;5007805;28;20351;-77
2020/12/14 03:47:47;;;;;;;48.88;17.48;;;6.60;99.90;;;;;;5008035;28;20037;-77
2020/12/14 03:50:13;;;;;;;43.53;18.05;;;6.60;99.90;;;;;;5008547;28;20036;-77
2020/12/14 03:52:38;;;;;;;47.25;18.27;;;6.60;99.90;;;;;;5008381;28;20029;-77
2020/12/14 03:55:04;;;;;;;48.50;16.65;;;6.60;99.90;;;;;;5007081;28;20823;-77
2020/12/14 03:57:32;;;;;;;56.55;18.55;;;6.60;99.90;;;;;;5007509;28;20121;-77
2020/12/14 03:59:58;;;;;;;50.40;17.67;;;6.70;99.90;;;;;;5007438;28;20033;-77
2020/12/14 04:02:25;;;;;;;46.05;18.08;;;6.70;99.90;;;;;;5003346;28;20022;-77
2020/12/14 04:04:51;;;;;;;53.97;18.75;;;6.70;99.90;;;;;;5006828;28;20080;-77
2020/12/14 04:07:16;;;;;;;50.92;20.02;;;6.70;99.90;;;;;;5008092;28;20057;-77
2020/12/14 04:09:42;;;;;;;50.00;19.38;;;6.80;99.90;;;;;;5007108;28;20060;-77
2020/12/14 04:12:07;;;;;;;48.17;18.23;;;6.70;99.90;;;;;;5007401;28;20038;-77
2020/12/14 04:14:33;;;;;;;41.58;17.38;;;6.80;99.90;;;;;;5007247;28;20079;-77
2020/12/14 04:16:58;;;;;;;47.35;17.80;;;6.80;99.90;;;;;;5008232;28;20061;-77
2020/12/14 04:19:24;;;;;;;51.15;19.17;;;6.80;99.90;;;;;;5007021;28;20430;-77
2020/12/14 04:21:51;;;;;;;46.53;18.60;;;6.80;99.90;;;;;;4989657;28;20081;-77
2020/12/14 04:24:17;;;;;;;55.55;18.45;;;6.80;99.90;;;;;;5005196;28;20477;-77
2020/12/14 04:26:43;;;;;;;48.58;19.23;;;6.80;99.90;;;;;;5007838;28;20030;-77
2020/12/14 04:29:09;;;;;;;45.08;18.55;;;6.80;99.90;;;;;;5004862;28;20018;-77
2020/12/14 04:31:34;;;;;;;49.72;20.10;;;6.70;99.90;;;;;;5011876;28;20029;-77
2020/12/14 04:34:01;;;;;;;48.30;18.63;;;6.70;99.90;;;;;;5010418;28;20022;-77
2020/12/14 04:36:26;;;;;;;48.97;19.75;;;6.70;99.90;;;;;;5009130;28;20022;-77
2020/12/14 04:38:52;;;;;;;46.80;18.83;;;6.70;99.90;;;;;;5010553;28;20022;-77
2020/12/14 04:41:23;;;;;;;52.85;18.25;;;6.70;99.90;;;;;;5010643;28;20698;-77
2020/12/14 04:43:50;;;;;;;52.50;19.35;;;6.70;99.90;;;;;;5007683;28;20242;-77
2020/12/14 04:46:19;;;;;;;45.53;17.83;;;6.70;99.90;;;;;;5011250;28;20172;-77
2020/12/14 04:48:46;;;;;;;41.00;17.70;;;6.60;99.90;;;;;;5011012;28;20108;-77
2020/12/14 04:51:11;;;;;;;44.78;17.35;;;6.60;99.90;;;;;;5011368;28;20518;-77
2020/12/14 04:53:41;;;;;;;43.47;17.00;;;6.70;99.90;;;;;;5005475;28;20049;-77
2020/12/14 04:56:11;;;;;;;38.88;16.63;;;6.60;99.90;;;;;;5009426;28;20026;-77
2020/12/14 04:58:39;;;;;;;41.30;17.58;;;6.60;99.90;;;;;;5010138;28;20459;-77
2020/12/14 05:01:05;;;;;;;44.53;17.50;;;6.60;99.90;;;;;;5009308;28;20030;-77
2020/12/14 05:03:30;;;;;;;37.22;16.58;;;6.60;99.90;;;;;;5010618;28;20030;-77
2020/12/14 05:05:56;;;;;;;40.00;16.50;;;6.60;99.90;;;;;;5010530;28;20045;-77
2020/12/14 05:08:31;;;;;;;37.60;16.40;;;6.50;99.90;;;;;;5009522;28;20037;-77
2020/12/14 05:10:58;;;;;;;39.80;17.00;;;6.50;99.90;;;;;;5010047;28;20037;-77
2020/12/14 05:13:27;;;;;;;40.97;16.13;;;6.60;99.90;;;;;;5010780;28;20125;-77
2020/12/14 05:15:53;;;;;;;40.35;16.77;;;6.60;99.90;;;;;;5009564;28;20034;-77
2020/12/14 05:18:22;;;;;;;37.50;15.80;;;6.60;99.90;;;;;;5009695;28;20034;-88
2020/12/14 05:21:02;;;;;;;40.38;16.40;;;6.50;99.90;;;;;;5010067;28;20385;-88
2020/12/14 05:23:29;;;;;;;34.53;16.55;;;6.60;99.90;;;;;;5011170;28;20096;-88
2020/12/14 05:26:12;;;;;;;33.13;14.60;;;6.50;99.90;;;;;;5009282;28;20026;-87
2020/12/14 05:28:38;;;;;;;33.88;14.70;;;6.50;99.90;;;;;;5004909;28;20109;-86
2020/12/14 05:31:03;;;;;;;37.10;14.90;;;6.40;99.90;;;;;;5009689;28;20176;-87
2020/12/14 05:33:30;;;;;;;37.78;15.35;;;6.40;99.90;;;;;;5010140;28;20034;-87
2020/12/14 05:35:56;;;;;;;34.63;15.55;;;6.40;99.90;;;;;;5010923;28;20041;-87
2020/12/14 05:38:30;;;;;;;33.17;15.20;;;6.40;99.90;;;;;;5006114;28;20034;-87
2020/12/14 05:41:01;;;;;;;30.52;15.20;;;6.30;99.90;;;;;;5010804;28;20508;-86
2020/12/14 05:43:28;;;;;;;;;;;6.30;99.90;;;;;;5010715;28;20029;-81
2020/12/14 05:45:55;;;;;;;34.00;15.27;;;6.40;99.90;;;;;;5001335;28;20012;-82
2020/12/14 05:48:32;;;;;;;33.35;16.08;;;6.40;99.90;;;;;;5009354;28;20455;-80
2020/12/14 05:51:03;;;;;;;38.08;15.60;;;6.30;99.90;;;;;;5018761;28;20051;-80
2020/12/14 05:53:34;;;;;;;36.50;14.55;;;6.30;99.90;;;;;;5010225;28;20033;-80
2020/12/14 05:56:01;;;;;;;36.65;15.75;;;6.30;99.90;;;;;;5008349;28;20096;-79
2020/12/14 05:58:30;;;;;;;33.28;16.33;;;6.30;99.90;;;;;;5006888;28;20516;-77
2020/12/14 06:00:56;;;;;;;34.30;15.45;;;6.30;99.90;;;;;;5010781;28;20053;-79
2020/12/14 06:03:25;;;;;;;30.98;14.98;;;6.20;99.90;;;;;;5007344;28;20485;-78
2020/12/14 06:05:59;;;;;;;32.15;15.60;;;6.20;99.90;;;;;;5005458;28;20038;-81
2020/12/14 06:08:46;;;;;;;30.55;14.68;;;6.30;99.90;;;;;;5001411;28;20033;-77
2020/12/14 06:11:21;;;;;;;33.10;14.75;;;6.30;99.90;;;;;;5003341;28;20113;-76
2020/12/14 06:13:53;;;;;;;33.05;15.02;;;6.30;99.90;;;;;;5004205;28;20026;-78
2020/12/14 06:16:24;;;;;;;35.95;15.68;;;6.30;99.90;;;;;;5005033;28;20033;-82
2020/12/14 06:18:50;;;;;;;30.85;15.43;;;6.20;99.90;;;;;;5009630;28;20083;-83
2020/12/14 06:21:56;;;;;;;32.53;15.70;;;6.20;99.90;;;;;;5007561;28;20505;-78
2020/12/14 06:24:23;;;;;;;33.75;16.00;;;6.30;99.90;;;;;;5006903;28;20141;-83
2020/12/14 06:26:49;;;;;;;31.95;15.13;;;6.30;99.90;;;;;;5005754;28;20111;-79
2020/12/14 06:29:32;;;;;;;33.75;15.88;;;6.30;99.90;;;;;;5004471;28;20034;-78
2020/12/14 06:31:58;;;;;;;33.67;15.95;;;6.30;99.90;;;;;;4997940;28;20036;-85
2020/12/14 06:34:37;;;;;;;35.90;15.82;;;6.30;99.90;;;;;;5001637;28;20037;-80
2020/12/14 06:37:03;;;;;;;33.20;16.17;;;6.30;99.90;;;;;;5006251;28;20022;-81
2020/12/14 06:39:37;;;;;;;34.53;15.68;;;6.30;99.90;;;;;;5009296;28;20029;-84
2020/12/14 06:42:20;;;;;;;37.17;17.45;;;6.30;99.90;;;;;;5008465;28;20210;-80
2020/12/14 06:45:03;;;;;;;37.58;16.77;;;6.30;99.90;;;;;;5007246;28;20018;-77
2020/12/14 06:48:00;;;;;;;35.28;16.45;;;6.30;99.90;;;;;;5007299;28;20062;-81
2020/12/14 06:50:31;;;;;;;38.33;17.25;;;6.30;99.90;;;;;;5012977;28;20542;-78
2020/12/14 06:52:59;;;;;;;38.55;16.80;;;6.30;99.90;;;;;;5014778;28;20075;-78
2020/12/14 06:55:41;;;;;;;35.92;16.13;;;6.40;99.90;;;;;;5009076;28;20037;-78
2020/12/14 06:58:09;;;;;;;33.80;16.23;;;6.40;99.90;;;;;;5008500;28;20034;-78
2020/12/14 07:00:35;;;;;;;35.63;16.48;;;6.40;99.90;;;;;;5008636;28;20504;-77
2020/12/14 07:03:01;;;;;;;35.53;16.52;;;6.30;99.90;;;;;;5007637;28;20038;-80
2020/12/14 07:05:29;;;;;;;39.35;17.42;;;6.30;99.90;;;;;;5008875;28;20045;-78
2020/12/14 07:07:55;;;;;;;37.88;17.15;;;6.30;99.90;;;;;;5008996;28;20034;-77
2020/12/14 07:10:25;;;;;;;42.92;18.05;;;6.40;99.90;;;;;;5008437;28;20612;-77
2020/12/14 07:12:51;;;;;;;42.47;17.70;;;6.30;99.90;;;;;;5006850;28;20025;-78
2020/12/14 07:15:24;;;;;;;39.88;17.67;;;6.40;99.90;;;;;;5008871;28;20026;-78
2020/12/14 07:18:11;;;;;;;45.22;17.73;;;6.40;99.90;;;;;;5008193;28;20174;-77
2020/12/14 07:20:53;;;;;;;38.80;16.38;;;6.30;99.90;;;;;;5007628;28;20022;-76
2020/12/14 07:23:19;;;;;;;;;;;6.40;99.90;;;;;;5003879;28;20064;-79
2020/12/14 07:25:47;;;;;;;42.38;16.45;;;6.30;99.90;;;;;;5003104;28;20274;-78
2020/12/14 07:28:13;;;;;;;41.75;17.50;;;6.40;99.90;;;;;;4998955;28;20026;-78
2020/12/14 07:30:38;;;;;;;40.47;16.83;;;6.40;99.90;;;;;;5003919;28;20392;-78
2020/12/14 07:33:04;;;;;;;35.40;16.70;;;6.40;99.90;;;;;;5000461;28;20037;-78
2020/12/14 07:35:29;;;;;;;36.65;16.55;;;6.40;99.90;;;;;;5003072;28;20026;-78
2020/12/14 07:37:55;;;;;;;33.30;15.50;;;6.30;99.90;;;;;;5005405;28;20533;-79
2020/12/14 07:40:20;;;;;;;38.17;15.32;;;6.40;99.90;;;;;;5004857;28;20048;-78
2020/12/14 07:42:47;;;;;;;34.35;15.48;;;6.30;99.90;;;;;;5004505;28;20033;-79
2020/12/14 07:45:20;;;;;;;31.00;15.60;;;6.40;99.90;;;;;;5004222;28;20033;-79
2020/12/14 07:47:51;;;;;;;38.83;15.57;;;6.30;99.90;;;;;;5004861;28;20117;-79
2020/12/14 07:50:24;;;;;;;34.28;16.70;;;6.30;99.90;;;;;;5003701;28;20029;-78
2020/12/14 07:52:55;;;;;;;37.05;15.68;;;6.30;99.90;;;;;;5004294;28;20121;-78
2020/12/14 07:55:22;;;;;;;34.80;16.00;;;6.40;99.90;;;;;;5005942;28;20026;-79
2020/12/14 07:57:49;;;;;;;29.92;14.48;;;6.40;99.90;;;;;;5005096;28;20064;-78
2020/12/14 08:00:20;;;;;;;33.20;14.43;;;6.40;99.90;;;;;;5004215;28;20400;-78
2020/12/14 08:02:45;;;;;;;33.27;15.13;;;6.40;99.90;;;;;;5003042;28;20018;-79
2020/12/14 08:05:16;;;;;;;30.63;13.73;;;6.40;99.90;;;;;;5004304;28;20045;-79
2020/12/14 08:08:02;;;;;;;28.50;13.82;;;6.30;99.90;;;;;;5004502;28;20026;-79
2020/12/14 08:10:31;;;;;;;26.42;13.23;;;6.30;99.90;;;;;;5004938;28;20045;-79
2020/12/14 08:13:02;;;;;;;30.73;14.98;;;6.30;99.90;;;;;;5005399;28;20022;-78
2020/12/14 08:15:30;;;;;;;32.80;14.35;;;6.30;99.90;;;;;;5004799;28;20030;-78
2020/12/14 08:17:57;;;;;;;43.50;13.82;;;6.30;99.90;;;;;;5004364;28;20046;-78
2020/12/14 08:20:31;;;;;;;28.58;14.32;;;6.30;99.90;;;;;;5004395;28;20049;-79
2020/12/14 08:22:58;;;;;;;29.00;14.88;;;6.30;99.90;;;;;;5004743;28;20495;-78
2020/12/14 08:25:28;;;;;;;32.40;14.35;;;6.20;99.90;;;;;;5004766;28;20036;-78
2020/12/14 08:28:03;;;;;;;32.47;14.30;;;6.30;99.90;;;;;;5004949;28;20109;-79
2020/12/14 08:30:31;;;;;;;31.92;14.95;;;6.30;99.90;;;;;;5003564;28;20385;-78
2020/12/14 08:33:19;;;;;;;36.53;15.23;;;6.40;99.90;;;;;;5003184;28;20477;-78
2020/12/14 08:35:46;;;;;;;27.73;14.45;;;6.30;99.90;;;;;;5003853;28;20396;-79
2020/12/14 08:38:13;;;;;;;41.20;16.10;;;6.40;99.90;;;;;;5005520;28;20044;-78
2020/12/14 08:40:48;;;;;;;37.97;14.90;;;6.40;99.90;;;;;;5004314;28;20029;-78
2020/12/14 08:43:16;;;;;;;24.35;13.35;;;6.50;99.90;;;;;;5004757;28;20030;-78
2020/12/14 08:46:01;;;;;;;26.40;13.10;;;6.50;99.90;;;;;;5003372;28;20598;-79
2020/12/14 08:48:41;;;;;;;24.05;13.48;;;6.50;99.90;;;;;;5005753;28;20431;-78
2020/12/14 08:51:13;;;;;;;27.58;14.48;;;6.60;99.90;;;;;;5003311;28;20030;-79
2020/12/14 08:53:41;;;;;;;27.42;14.90;;;6.60;99.90;;;;;;5002812;28;20045;-79
2020/12/14 08:56:16;;;;;;;23.45;12.98;;;6.60;99.90;;;;;;5001913;28;20026;-79
2020/12/14 08:58:58;;;;;;;29.23;14.43;;;6.70;99.90;;;;;;5002753;28;20061;-79
2020/12/14 09:01:29;;;;;;;27.10;13.43;;;6.70;99.90;;;;;;5003002;28;20022;-78
2020/12/14 09:03:57;;;;;;;29.33;14.75;;;6.70;99.90;;;;;;5002743;28;20129;-78
2020/12/14 09:06:36;;;;;;;25.48;13.30;;;6.70;99.90;;;;;;5004373;28;20049;-78
2020/12/14 09:09:11;;;;;;;26.38;13.98;;;6.70;99.90;;;;;;5003876;28;20030;-78
2020/12/14 09:11:48;;;;;;;23.55;13.38;;;6.80;99.90;;;;;;5004521;28;20034;-78
2020/12/14 09:14:22;;;;;;;24.83;14.43;;;6.80;99.90;;;;;;5005623;28;20029;-78
2020/12/14 09:16:49;;;;;;;25.65;13.50;;;6.90;99.90;;;;;;5007715;28;20118;-77
2020/12/14 09:19:29;;;;;;;20.48;12.48;;;6.90;99.90;;;;;;5006925;28;20568;-78
2020/12/14 09:21:55;;;;;;;23.85;12.38;;;6.90;99.90;;;;;;5008056;28;20089;-78
2020/12/14 09:24:32;;;;;;;23.55;12.68;;;6.90;99.90;;;;;;5007198;28;20042;-78
2020/12/14 09:27:05;;;;;;;22.25;12.27;;;7.00;99.90;;;;;;5005513;28;20088;-78
2020/12/14 09:29:32;;;;;;;23.70;11.70;;;7.00;99.90;;;;;;5007167;28;20030;-77
2020/12/14 09:31:58;;;;;;;21.15;12.10;;;7.10;99.90;;;;;;5006116;28;20029;-76
2020/12/14 09:34:23;;;;;;;29.60;12.30;;;7.10;99.90;;;;;;5007657;28;20596;-76
2020/12/14 09:36:54;;;;;;;24.17;11.45;;;7.10;99.90;;;;;;5005140;28;20029;-76
2020/12/14 09:39:20;;;;;;;18.67;10.93;;;7.20;99.90;;;;;;5003180;28;20029;-78
2020/12/14 09:41:45;;;;;;;20.50;11.18;;;7.30;99.90;;;;;;5006737;28;20037;-76
2020/12/14 09:44:11;;;;;;;17.48;10.63;;;7.20;99.90;;;;;;5006317;28;20030;-79
2020/12/14 09:46:36;;;;;;;18.98;11.13;;;7.20;99.90;;;;;;5007079;28;20018;-77
2020/12/14 09:49:02;;;;;;;19.33;10.60;;;7.20;99.90;;;;;;5006868;28;20021;-77
2020/12/14 09:51:28;;;;;;;19.80;10.50;;;7.30;99.90;;;;;;5007794;28;20455;-77
2020/12/14 09:53:55;;;;;;;20.10;10.52;;;7.30;99.90;;;;;;5007993;28;20045;-77
2020/12/14 09:56:20;;;;;;;21.75;10.73;;;7.20;99.90;;;;;;5007144;28;20477;-77
2020/12/14 09:58:46;;;;;;;21.00;9.95;;;7.20;99.90;;;;;;5007144;28;20080;-77
2020/12/14 10:01:12;;;;;;;17.45;10.35;;;7.40;99.90;;;;;;5007401;28;20037;-77
2020/12/14 10:03:38;;;;;;;21.08;10.52;;;7.40;99.90;;;;;;5006692;28;20038;-77
2020/12/14 10:06:03;;;;;;;19.00;9.55;;;7.50;99.90;;;;;;5006230;28;20026;-77
2020/12/14 10:08:29;;;;;;;20.60;10.25;;;7.60;99.90;;;;;;5007753;28;20026;-77
2020/12/14 10:10:56;;;;;;;20.55;10.35;;;7.70;99.90;;;;;;5007231;28;20132;-77
2020/12/14 10:13:25;;;;;;;24.20;10.00;;;7.80;99.90;;;;;;5007196;28;20033;-77
2020/12/14 10:15:51;;;;;;;17.05;10.00;;;7.90;99.90;;;;;;5004727;28;20037;-77
2020/12/14 10:18:17;;;;;;;18.83;9.43;;;8.00;99.90;;;;;;5005842;28;20026;-77
2020/12/14 10:20:43;;;;;;;20.23;9.90;;;8.00;99.90;;;;;;5005799;28;20057;-77
2020/12/14 10:23:10;;;;;;;13.73;8.15;;;8.10;99.90;;;;;;5007316;28;20030;-77
2020/12/14 10:25:37;;;;;;;13.20;8.20;;;8.00;99.90;;;;;;5005885;28;20544;-77
2020/12/14 10:28:03;;;;;;;18.38;9.23;;;7.90;99.90;;;;;;5006823;28;20036;-77
2020/12/14 10:30:29;;;;;;;19.40;8.75;;;8.00;99.90;;;;;;5005452;28;20030;-77
2020/12/14 10:32:54;;;;;;;16.75;8.63;;;8.20;99.90;;;;;;5006723;28;20095;-77
2020/12/14 10:35:21;;;;;;;18.52;9.13;;;8.30;99.90;;;;;;5006118;28;20026;-77
2020/12/14 10:37:46;;;;;;;21.48;9.07;;;8.30;99.90;;;;;;5005619;28;20054;-77
2020/12/14 10:40:12;;;;;;;18.88;8.82;;;8.30;99.90;;;;;;5006867;28;20061;-77
2020/12/14 10:42:38;;;;;;;17.58;9.50;;;8.20;99.90;;;;;;5006573;28;20074;-77
2020/12/14 10:45:04;;;;;;;17.63;9.57;;;8.00;99.90;;;;;;5006029;28;20152;-77
2020/12/14 10:47:29;;;;;;;15.13;8.82;;;8.00;99.90;;;;;;5005711;28;20401;-77
2020/12/14 10:49:55;;;;;;;16.85;9.77;;;8.00;99.90;;;;;;5005340;28;20042;-80
2020/12/14 10:52:21;;;;;;;17.38;9.30;;;8.00;99.90;;;;;;5005674;28;20037;-77
2020/12/14 10:54:46;;;;;;;18.58;9.57;;;8.00;99.90;;;;;;5003601;28;20523;-77
2020/12/14 10:57:12;;;;;;;18.45;9.80;;;8.10;99.90;;;;;;5006096;28;20034;-77
2020/12/14 10:59:37;;;;;;;18.65;9.20;;;8.10;99.90;;;;;;5006456;28;20041;-77
2020/12/14 11:02:03;;;;;;;18.05;9.00;;;8.00;99.90;;;;;;5003995;28;20014;-78
2020/12/14 11:04:28;;;;;;;17.27;8.98;;;8.00;99.90;;;;;;5005732;28;20489;-77
2020/12/14 11:06:54;;;;;;;20.52;8.93;;;8.10;99.90;;;;;;5005943;28;20018;-77
2020/12/14 11:09:19;;;;;;;19.20;9.48;;;8.10;99.90;;;;;;5005550;28;20112;-77
2020/12/14 11:11:45;;;;;;;17.00;9.60;;;8.20;99.90;;;;;;5005426;28;20084;-77
2020/12/14 11:14:10;;;;;;;17.98;9.25;;;8.30;99.90;;;;;;5005443;28;20393;-77
2020/12/14 11:16:39;;;;;;;17.20;9.00;;;8.40;99.90;;;;;;5005072;28;20038;-78
2020/12/14 11:19:05;;;;;;;20.02;9.80;;;8.60;99.90;;;;;;5004695;28;20293;-78
2020/12/14 11:21:31;;;;;;;17.35;9.13;;;8.80;99.90;;;;;;5005571;28;20436;-78
2020/12/14 11:23:56;;;;;;;15.98;9.05;;;8.80;99.90;;;;;;5003773;28;20036;-77
2020/12/14 11:26:22;;;;;;;15.80;8.98;;;8.80;99.90;;;;;;5005770;28;20692;-77
2020/12/14 11:28:47;;;;;;;15.82;8.38;;;8.90;99.90;;;;;;5004220;28;20037;-78
2020/12/14 11:31:16;;;;;;;16.67;9.55;;;9.20;99.90;;;;;;5005531;28;20140;-78
2020/12/14 11:33:42;;;;;;;15.23;8.32;;;9.20;99.90;;;;;;5005731;28;20686;-78
2020/12/14 11:36:07;;;;;;;13.55;7.72;;;9.40;99.90;;;;;;5005563;28;20117;-78
2020/12/14 11:38:33;;;;;;;16.10;7.78;;;9.50;99.90;;;;;;5002890;28;20373;-78
2020/12/14 11:40:59;;;;;;;11.45;7.20;;;9.60;99.90;;;;;;5004704;28;20018;-77
2020/12/14 11:43:25;;;;;;;13.07;6.90;;;9.60;99.90;;;;;;5003512;28;20034;-77
2020/12/14 11:45:50;;;;;;;10.98;6.40;;;9.70;99.90;;;;;;5004989;28;20034;-78
2020/12/14 11:48:16;;;;;;;12.82;6.50;;;9.90;99.90;;;;;;5003799;28;20075;-78
2020/12/14 11:50:43;;;;;;;10.98;5.90;;;10.10;99.90;;;;;;5005249;28;20045;-78
2020/12/14 11:53:09;;;;;;;10.00;5.88;;;10.10;99.90;;;;;;5005103;28;20033;-78
2020/12/14 11:55:36;;;;;;;9.75;6.13;;;10.00;99.90;;;;;;5004311;28;20101;-78
2020/12/14 11:58:01;;;;;;;10.57;5.53;;;9.90;99.90;;;;;;5005041;28;20038;-78
2020/12/14 12:00:27;;;;;;;8.80;5.13;;;10.00;99.90;;;;;;5005122;28;20022;-78
2020/12/14 12:02:52;;;;;;;9.73;5.70;;;9.90;99.90;;;;;;5003671;28;20467;-78
2020/12/14 12:05:18;;;;;;;12.05;6.05;;;9.90;99.90;;;;;;5003061;28;20046;-78
2020/12/14 12:07:43;;;;;;;10.27;5.55;;;9.70;99.90;;;;;;5003859;28;20028;-78
2020/12/14 12:10:09;;;;;;;11.65;6.43;;;9.60;99.90;;;;;;5005695;28;20022;-78
2020/12/14 12:12:34;;;;;;;11.00;6.40;;;9.40;99.90;;;;;;5004216;28;20034;-78
2020/12/14 12:14:59;;;;;;;12.93;6.97;;;9.30;99.90;;;;;;5005208;28;20038;-78
2020/12/14 12:17:25;;;;;;;11.95;6.90;;;9.20;99.90;;;;;;5003852;28;20484;-77
2020/12/14 12:19:51;;;;;;;12.35;6.28;;;9.20;99.90;;;;;;5001713;28;20374;-78
2020/12/14 12:22:17;;;;;;;14.43;7.40;;;9.00;99.90;;;;;;5001589;28;20026;-77
2020/12/14 12:24:42;;;;;;;11.48;6.28;;;9.10;99.90;;;;;;4999226;28;20089;-78
2020/12/14 12:27:08;;;;;;;13.57;6.90;;;9.10;99.90;;;;;;4996916;28;20040;-78
2020/12/14 12:29:33;;;;;;;10.45;6.10;;;9.10;99.90;;;;;;5002414;28;20401;-79
2020/12/14 12:31:59;;;;;;;13.63;7.13;;;9.10;99.90;;;;;;5004854;28;20072;-78
2020/12/14 12:34:25;;;;;;;14.63;6.88;;;9.20;99.90;;;;;;5004054;28;20491;-78
2020/12/14 12:36:52;;;;;;;14.38;6.95;;;9.30;99.90;;;;;;5002213;28;20037;-78
2020/12/14 12:39:18;;;;;;;12.13;6.53;;;9.30;99.90;;;;;;5003743;28;20087;-78
2020/12/14 12:41:48;;;;;;;13.88;7.03;;;9.20;99.90;;;;;;5005066;28;20109;-77
2020/12/14 12:44:14;;;;;;;13.95;6.85;;;9.20;99.90;;;;;;5002826;28;20058;-77